Hovedside
METAR-TAF:

METAR-TAF

Lufthavner :

La Grande/Union County Airport

La Grande, Oregon, USA

breddegrad: 45-17N, lengdegrad: 118-00W, høyde over havet: 827 m

Gjeldene værobservasjon

Denne rapporten ble laget for 8 minutter siden, klokken 03:56 UTC
Vind 6 kt fra Sør-sørøst
Temperatur 3°C
Luftfuktighet 93%
Trykk 1022 hPa
Sikt: 16.1 km
Få skyer i en høyde av 2700 ft
lett regn

METAR: KLGD 200356Z AUTO 16006KT 10SM -RA FEW027 03/02 A3017 RMK AO2 RAE14B50 SLP350 P0000 T00330017

Tid: 20:04 (04:04 UTC)


TAF: fraværende

Værobservasjoner og værvarsel for over 4000 flyplasser (METAR- og TAF-rapporter).

Tilgjengelige stasjoner er representert av de røde og gule prikkene på kartet.

Hold musepekeren over prikken for å se navnet på stasjonen.

Klikk så for å se værobservasjoner og -varsler.

For å forandre kartet kan du klikke på den grønne knappen med svart kryss for å zoome inn, på den grønne knappen med strek for å zoome ut, eller på de grønne pilene for å se tilstøtende kart.


METAR-TAF: